Time;durP1;ratioP1;P1;durP2;ratioP2;P2;SDS_P1;SDS_P2;PMS_P1;PMS_P2;Temp;Humidity;BMP_temperature;BMP_pressure;BME280_temperature;BME280_humidity;BME280_pressure;Samples;Min_cycle;Max_cycle;Signal;HPM_P1;HPM_P2
2022/02/01 00:02:11;;;;;;;;;7.00;6.00;;;;;5.89;59.95;102060.91;4764688;29;45548;-85
2022/02/01 00:07:37;;;;;;;;;7.50;6.00;;;;;5.87;59.27;102049.34;4764882;29;45842;-85
2022/02/01 00:12:53;;;;;;;;;8.33;8.33;;;;;5.88;59.43;102048.50;4762629;29;45585;-85
2022/02/01 00:36:51;;;;;;;;;8.67;6.33;;;;;5.92;59.50;102037.31;4743933;30;45541;-84
2022/02/01 00:39:18;;;;;;;;;6.67;5.67;;;;;5.94;59.17;102048.88;4788890;29;44817;-84
2022/02/01 00:41:50;;;;;;;;;5.33;5.33;;;;;5.87;59.41;102036.16;4803150;29;47267;-84
2022/02/01 00:44:17;;;;;;;;;11.00;6.00;;;;;5.88;59.56;102046.81;4819982;29;45445;-84
2022/02/01 00:46:43;;;;;;;;;5.67;5.67;;;;;5.89;59.62;102048.59;4802637;29;45529;-83
2022/02/01 00:49:08;;;;;;;;;7.00;6.67;;;;;5.86;59.35;102058.09;4802709;29;45731;-87
2022/02/01 00:51:35;;;;;;;;;9.67;7.67;;;;;5.89;59.17;102058.25;4818967;29;46205;-84
2022/02/01 00:54:01;;;;;;;;;6.67;6.67;;;;;5.89;59.38;102060.91;4802104;29;45533;-86
2022/02/01 00:56:26;;;;;;;;;12.33;6.00;;;;;5.88;59.68;102078.50;4802393;29;45490;-84
2022/02/01 00:58:52;;;;;;;;;10.33;8.33;;;;;5.92;59.65;102072.56;4819648;29;45436;-84
2022/02/01 01:01:17;;;;;;;;;8.00;5.67;;;;;5.93;60.09;102070.81;4817110;29;47144;-86
2022/02/01 01:03:47;;;;;;;;;11.00;8.33;;;;;6.01;59.64;102080.09;4802295;29;45453;-84
2022/02/01 01:06:13;;;;;;;;;10.00;6.00;;;;;6.12;59.70;102093.84;4803481;29;45418;-85
2022/02/01 01:09:18;;;;;;;;;12.33;9.00;;;;;6.14;59.33;102090.50;4818759;29;44870;-85
2022/02/01 01:11:44;;;;;;;;;9.00;6.33;;;;;6.07;59.53;102085.69;4817957;29;46104;-84
2022/02/01 01:54:10;;;;;;;;;7.00;7.00;;;;;6.38;61.27;102050.31;4835009;29;45437;-84
2022/02/01 01:56:38;;;;;;;;;6.33;3.00;;;;;6.46;61.38;102049.00;4835743;29;45276;-85
2022/02/01 01:59:06;;;;;;;;;5.67;5.67;;;;;6.52;61.24;102059.88;4819720;29;45513;-85
2022/02/01 02:01:33;;;;;;;;;7.67;7.67;;;;;6.56;60.97;102051.31;4836850;29;45772;-85
2022/02/01 02:03:59;;;;;;;;;9.33;6.00;;;;;6.54;61.62;102037.06;4837533;29;45615;-84
2022/02/01 02:06:24;;;;;;;;;12.67;5.00;;;;;6.57;61.73;102029.31;4839138;29;44844;-85
2022/02/01 02:08:52;;;;;;;;;9.00;8.33;;;;;6.45;61.69;102014.59;4821773;29;45430;-85
2022/02/01 02:16:59;;;;;;;;;7.00;5.33;;;;;6.76;62.22;102038.19;4837695;29;44800;-85
2022/02/01 02:19:30;;;;;;;;;7.00;7.00;;;;;6.82;62.47;102043.78;4835663;29;45495;-84
2022/02/01 02:21:59;;;;;;;;;6.67;5.00;;;;;6.86;62.70;102053.66;4818600;29;44869;-84
2022/02/01 02:24:27;;;;;;;;;7.00;6.00;;;;;6.89;62.83;102056.47;4818038;29;45415;-84
2022/02/01 02:26:55;;;;;;;;;6.67;6.67;;;;;6.87;62.66;102057.22;4834700;29;45375;-83
2022/02/01 02:29:21;;;;;;;;;6.33;6.33;;;;;6.90;62.92;102060.94;4817724;29;45356;-84
2022/02/01 02:31:46;;;;;;;;;8.67;6.33;;;;;6.92;63.40;102045.16;4818598;29;45433;-84
2022/02/01 02:34:14;;;;;;;;;6.00;6.00;;;;;6.91;63.50;102049.53;4837548;29;45240;-84
2022/02/01 02:36:57;;;;;;;;;6.33;3.00;;;;;6.93;63.70;102053.16;4836705;29;45337;-83
2022/02/01 02:39:31;;;;;;;;;7.00;7.00;;;;;6.81;64.13;102042.88;4839798;29;45413;-84
2022/02/01 02:42:11;;;;;;;;;3.00;3.00;;;;;6.89;64.37;102053.84;4824847;29;45506;-84
2022/02/01 02:47:25;;;;;;;;;10.00;6.67;;;;;6.82;65.08;102049.06;4840367;29;45407;-85
2022/02/01 02:49:51;;;;;;;;;3.67;3.67;;;;;6.75;65.21;102032.00;4824266;29;45702;-84
2022/02/01 02:52:48;;;;;;;;;3.00;2.67;;;;;6.88;65.43;102020.28;4836600;29;45355;-85
2022/02/01 02:55:13;;;;;;;;;5.67;3.00;;;;;6.76;65.61;102003.81;4818892;29;47145;-84
2022/02/01 02:57:38;;;;;;;;;5.67;5.67;;;;;6.75;65.97;101999.38;4836641;29;45162;-85
2022/02/01 03:00:04;;;;;;;;;3.00;3.00;;;;;6.80;66.07;101997.84;4818750;29;45434;-84
2022/02/01 03:02:33;;;;;;;;;3.00;3.00;;;;;6.69;66.08;101978.81;4819087;29;45483;-84
2022/02/01 03:04:58;;;;;;;;;3.67;3.67;;;;;6.78;66.61;101999.50;4834968;29;45977;-84
2022/02/01 03:07:23;;;;;;;;;5.00;3.67;;;;;6.75;66.85;101988.78;4835395;29;44807;-84
2022/02/01 03:09:49;;;;;;;;;6.00;5.33;;;;;6.82;66.47;102001.47;4837239;29;44698;-84
2022/02/01 03:12:21;;;;;;;;;7.33;5.00;;;;;6.81;66.97;101994.38;4820280;29;45416;-85
2022/02/01 03:20:04;;;;;;;;;6.00;5.67;;;;;6.81;67.53;101978.50;4762634;29;45495;-84
2022/02/01 03:22:30;;;;;;;;;8.00;5.00;;;;;6.83;67.57;101968.91;4749240;29;45487;-84
2022/02/01 03:24:58;;;;;;;;;3.00;3.00;;;;;6.87;68.25;101989.41;4777983;29;45245;-84
2022/02/01 03:27:25;;;;;;;;;5.33;5.00;;;;;6.88;68.06;101985.91;4784336;29;45657;-84
2022/02/01 03:29:52;;;;;;;;;3.67;3.67;;;;;6.80;67.79;101968.75;4784388;29;45479;-85
2022/02/01 03:32:22;;;;;;;;;2.33;2.33;;;;;6.85;68.19;101974.25;4768540;29;45231;-85
2022/02/01 03:34:49;;;;;;;;;6.67;5.33;;;;;6.90;68.78;101985.97;4768390;29;47243;-85
2022/02/01 03:37:14;;;;;;;;;7.00;5.67;;;;;6.89;68.74;101987.72;4763405;29;46410;-84
2022/02/01 03:39:42;;;;;;;;;4.33;4.33;;;;;6.89;68.30;101979.78;4777370;29;45443;-84
2022/02/01 03:42:08;;;;;;;;;7.00;4.67;;;;;6.90;69.15;101993.91;4763172;29;45444;-84
2022/02/01 03:44:33;;;;;;;;;6.67;6.67;;;;;6.80;68.90;101976.69;4777528;29;46695;-83
2022/02/01 03:47:03;;;;;;;;;4.00;3.00;;;;;6.91;69.33;101974.59;4777682;29;45557;-83
2022/02/01 03:49:33;;;;;;;;;8.33;5.67;;;;;6.93;69.99;101971.19;4759901;29;45812;-84
2022/02/01 03:51:59;;;;;;;;;3.00;3.00;;;;;6.85;70.08;101959.31;4749994;29;45387;-84
2022/02/01 03:54:29;;;;;;;;;7.33;5.67;;;;;6.94;69.80;101965.03;4749653;29;46909;-84
2022/02/01 03:56:55;;;;;;;;;5.00;2.00;;;;;6.91;71.12;101956.06;4789568;29;45426;-85
2022/02/01 03:59:22;;;;;;;;;7.00;5.00;;;;;6.93;70.88;101962.34;4822339;29;44801;-84
2022/02/01 04:01:55;;;;;;;;;5.67;5.00;;;;;7.01;71.02;101961.88;4804992;29;45435;-84
2022/02/01 04:04:22;;;;;;;;;9.00;5.67;;;;;6.86;70.79;101936.44;4821087;29;45632;-84
2022/02/01 04:06:48;;;;;;;;;6.00;4.33;;;;;6.96;71.35;101962.47;4802225;29;45252;-84
2022/02/01 04:09:14;;;;;;;;;7.33;4.67;;;;;6.99;71.71;101952.06;4801892;29;45442;-84
2022/02/01 04:11:39;;;;;;;;;6.00;5.00;;;;;6.98;71.75;101947.59;4818218;29;45431;-84
2022/02/01 04:14:05;;;;;;;;;4.33;3.00;;;;;7.00;72.49;101944.19;4802014;29;47104;-84
2022/02/01 04:16:31;;;;;;;;;10.00;5.00;;;;;7.05;72.06;101946.13;4801666;29;44863;-83
2022/02/01 04:19:01;;;;;;;;;3.67;3.67;;;;;7.09;72.57;101945.44;4800392;29;45855;-84
2022/02/01 04:21:27;;;;;;;;;6.67;3.00;;;;;7.05;72.58;101946.13;4800246;29;45399;-84
2022/02/01 04:23:52;;;;;;;;;5.00;5.00;;;;;6.92;73.46;101924.38;4819247;29;45335;-84
2022/02/01 04:26:18;;;;;;;;;7.33;6.00;;;;;7.00;74.12;101932.69;4819071;29;45744;-85
2022/02/01 04:28:43;;;;;;;;;9.00;6.00;;;;;7.01;74.78;101935.44;4820372;29;45447;-84
2022/02/01 04:31:10;;;;;;;;;3.33;3.33;;;;;7.09;75.74;101948.09;4804510;29;45519;-85
2022/02/01 04:33:35;;;;;;;;;9.00;5.00;;;;;6.98;75.63;101943.19;4805406;29;47151;-85
2022/02/01 04:36:02;;;;;;;;;6.00;5.00;;;;;7.06;76.29;101954.16;4804821;29;45850;-85
2022/02/01 04:38:27;;;;;;;;;6.00;2.33;;;;;7.03;76.51;101947.81;4802579;29;45697;-84
2022/02/01 04:40:54;;;;;;;;;3.00;2.67;;;;;7.09;76.25;101953.38;4801308;29;45638;-85
2022/02/01 04:43:20;;;;;;;;;8.33;5.00;;;;;7.09;76.81;101943.72;4817315;29;46063;-85
2022/02/01 04:45:46;;;;;;;;;5.00;5.00;;;;;7.11;76.35;101957.00;4799138;29;45376;-85
2022/02/01 04:48:11;;;;;;;;;2.00;2.00;;;;;7.18;76.29;101961.78;4815798;29;45511;-85
2022/02/01 04:50:38;;;;;;;;;3.00;3.00;;;;;7.18;76.59;101956.47;4800713;29;44871;-83
2022/02/01 04:53:04;;;;;;;;;5.00;3.67;;;;;7.19;77.23;101934.47;4804038;29;45715;-84
2022/02/01 04:58:52;;;;;;;;;2.00;2.00;;;;;7.24;76.56;101917.06;4815286;29;45754;-84
2022/02/01 05:01:36;;;;;;;;;2.67;2.67;;;;;7.26;80.04;101910.13;4820108;29;44687;-84
2022/02/01 05:04:01;;;;;;;;;6.67;3.67;;;;;7.20;82.23;101920.41;4820266;29;45230;-84
2022/02/01 05:06:28;;;;;;;;;5.00;3.00;;;;;7.18;82.75;101915.03;4818165;29;45402;-85
2022/02/01 05:08:54;;;;;;;;;5.67;5.00;;;;;7.18;80.13;101915.03;4799488;29;45519;-85
2022/02/01 05:11:20;;;;;;;;;7.67;5.33;;;;;7.23;79.43;101920.56;4815445;29;44870;-84
2022/02/01 05:16:21;;;;;;;;;6.33;6.33;;;;;7.25;78.93;101933.84;4813979;29;45372;-84
2022/02/01 05:18:49;;;;;;;;;2.00;2.00;;;;;7.25;79.09;101939.13;4799641;29;45602;-85
2022/02/01 05:21:25;;;;;;;;;3.67;3.67;;;;;7.31;79.29;101950.94;4800143;29;45391;-85
2022/02/01 05:23:52;;;;;;;;;2.00;2.00;;;;;7.32;79.24;101939.50;4807712;29;47256;-85
2022/02/01 05:26:22;;;;;;;;;3.00;3.00;;;;;7.35;79.21;101936.09;4833752;29;45459;-85
2022/02/01 05:28:47;;;;;;;;;5.33;5.00;;;;;7.29;79.62;101922.56;4818082;29;45369;-85
2022/02/01 05:31:13;;;;;;;;;8.33;7.67;;;;;7.37;79.80;101929.13;4817939;29;45605;-85
2022/02/01 05:33:39;;;;;;;;;6.33;5.00;;;;;7.40;79.66;101931.94;4833604;29;45487;-85
2022/02/01 05:36:06;;;;;;;;;6.00;5.00;;;;;7.40;79.53;101924.88;4833535;29;45407;-84
2022/02/01 05:38:32;;;;;;;;;3.67;3.67;;;;;7.37;79.76;101919.47;4836871;29;45477;-86
2022/02/01 05:40:58;;;;;;;;;3.67;1.00;;;;;7.42;80.85;101919.66;4820498;29;45282;-84
2022/02/01 05:43:26;;;;;;;;;7.00;7.00;;;;;7.41;80.45;101916.13;4835999;29;46198;-84
2022/02/01 05:45:53;;;;;;;;;5.67;2.67;;;;;7.36;80.78;101893.81;4820392;29;45865;-85
2022/02/01 05:48:19;;;;;;;;;9.00;4.33;;;;;7.42;80.98;101895.84;4818878;29;45987;-84
2022/02/01 05:50:48;;;;;;;;;4.33;2.67;;;;;7.34;81.50;101869.03;4819356;29;45515;-84
2022/02/01 05:53:18;;;;;;;;;5.33;5.00;;;;;7.45;81.63;101885.38;4818613;29;46294;-84
2022/02/01 05:55:46;;;;;;;;;0.67;0.67;;;;;7.47;82.24;101882.81;4836125;29;45508;-84
2022/02/01 05:58:13;;;;;;;;;6.00;5.00;;;;;7.40;82.89;101861.38;4835675;29;45457;-84
2022/02/01 06:00:41;;;;;;;;;4.33;4.33;;;;;7.50;83.22;101873.28;4836002;29;45371;-83
2022/02/01 06:03:14;;;;;;;;;3.00;3.00;;;;;7.54;83.51;101851.41;4819156;29;47586;-85
2022/02/01 06:05:39;;;;;;;;;3.00;3.00;;;;;7.52;83.37;101852.19;4818431;29;45807;-85
2022/02/01 06:08:06;;;;;;;;;5.00;2.67;;;;;7.50;83.89;101852.09;4818868;29;45423;-85
2022/02/01 06:10:31;;;;;;;;;3.00;2.33;;;;;7.56;83.98;101872.66;4820068;29;45535;-84
2022/02/01 06:12:57;;;;;;;;;5.00;5.00;;;;;7.52;83.97;101860.13;4818148;29;47365;-83
2022/02/01 06:15:24;;;;;;;;;7.33;6.00;;;;;7.54;84.02;101864.63;4837279;29;45907;-84
2022/02/01 06:17:50;;;;;;;;;2.00;2.00;;;;;7.51;84.31;101858.28;4821217;29;45428;-84
2022/02/01 06:20:15;;;;;;;;;3.00;3.00;;;;;7.40;84.29;101826.97;4821857;29;45816;-84
2022/02/01 06:22:42;;;;;;;;;6.33;5.00;;;;;7.56;84.99;101847.06;4835059;29;45394;-83
2022/02/01 06:25:08;;;;;;;;;5.33;2.33;;;;;7.61;84.55;101852.56;4834408;29;45134;-84
2022/02/01 06:27:34;;;;;;;;;5.67;5.67;;;;;7.58;84.52;101847.16;4834697;29;45438;-84
2022/02/01 06:29:59;;;;;;;;;6.00;3.67;;;;;7.60;84.77;101853.41;4835914;29;45744;-84
2022/02/01 06:32:31;;;;;;;;;3.67;3.67;;;;;7.73;84.94;101861.03;4819224;29;47118;-84
2022/02/01 06:34:56;;;;;;;;;4.33;2.67;;;;;7.69;85.21;101868.78;4837709;29;45436;-84
2022/02/01 06:37:23;;;;;;;;;7.33;5.00;;;;;7.68;85.49;101857.31;4841082;29;45564;-86
2022/02/01 06:39:49;;;;;;;;;5.67;4.33;;;;;7.72;84.81;101848.66;4824978;29;45214;-84
2022/02/01 06:42:16;;;;;;;;;3.00;3.00;;;;;7.75;85.14;101854.06;4822297;29;48268;-85
2022/02/01 06:44:42;;;;;;;;;4.33;4.33;;;;;7.70;85.17;101852.97;4822301;29;45528;-84
2022/02/01 06:47:07;;;;;;;;;3.67;3.67;;;;;7.75;85.22;101869.06;4823768;29;45834;-84
2022/02/01 06:49:33;;;;;;;;;8.67;3.00;;;;;7.75;84.87;101864.66;4838690;29;45371;-85
2022/02/01 06:51:59;;;;;;;;;5.67;5.00;;;;;7.76;85.15;101860.28;4820403;29;45108;-85
2022/02/01 06:54:25;;;;;;;;;6.67;5.00;;;;;7.70;85.10;101855.63;4822443;29;45780;-85
2022/02/01 06:56:52;;;;;;;;;5.67;4.33;;;;;7.75;85.14;101856.72;4805718;29;45447;-83
2022/02/01 06:59:17;;;;;;;;;4.33;4.33;;;;;7.71;85.41;101844.19;4821270;29;45790;-84
2022/02/01 07:01:43;;;;;;;;;7.00;5.00;;;;;7.71;85.53;101844.19;4820308;29;47105;-85
2022/02/01 07:04:09;;;;;;;;;1.00;1.00;;;;;7.72;85.74;101842.47;4837128;29;45491;-84
2022/02/01 07:06:35;;;;;;;;;2.00;2.00;;;;;7.74;85.64;101844.31;4838906;29;45746;-84
2022/02/01 07:09:02;;;;;;;;;4.33;4.33;;;;;7.79;85.91;101844.53;4836852;29;45826;-84
2022/02/01 07:11:28;;;;;;;;;4.33;4.33;;;;;7.76;86.21;101850.59;4818919;29;47073;-84
2022/02/01 07:17:16;;;;;;;;;5.67;3.00;;;;;7.82;86.16;101847.31;4834943;29;44821;-84
2022/02/01 07:19:45;;;;;;;;;18.33;15.67;;;;;7.84;86.67;101826.16;4836503;29;45436;-84
2022/02/01 07:22:11;;;;;;;;;2.67;2.00;;;;;7.88;86.87;101838.72;4824514;29;47286;-86
2022/02/01 07:24:49;;;;;;;;;13.00;8.00;;;;;7.92;86.03;101845.97;4842768;29;44761;-86
2022/02/01 07:27:33;;;;;;;;;3.00;3.00;;;;;8.00;86.45;101865.75;4826768;29;44825;-86
2022/02/01 07:30:02;;;;;;;;;8.33;5.00;;;;;7.92;86.50;101840.66;4823557;29;45417;-85
2022/02/01 07:32:28;;;;;;;;;2.00;1.67;;;;;7.81;86.02;101838.44;4824155;29;45488;-86
2022/02/01 07:34:54;;;;;;;;;4.33;4.33;;;;;7.99;87.29;101864.81;4824210;29;44871;-85
2022/02/01 07:40:49;;;;;;;;;3.00;3.00;;;;;8.11;87.14;101837.94;4839031;29;45475;-86
2022/02/01 07:43:15;;;;;;;;;5.33;3.00;;;;;8.06;87.32;101834.22;4838773;29;45545;-86
2022/02/01 07:45:43;;;;;;;;;4.33;3.00;;;;;7.95;87.09;101811.66;4822177;29;45492;-86
2022/02/01 07:48:09;;;;;;;;;7.33;6.00;;;;;8.04;87.66;101809.41;4822923;29;45847;-86
2022/02/01 07:50:36;;;;;;;;;5.67;3.67;;;;;8.10;88.12;101809.66;4824884;29;45337;-86
2022/02/01 07:53:04;;;;;;;;;2.00;2.00;;;;;7.99;88.10;101784.44;4822802;29;46934;-86
2022/02/01 07:55:30;;;;;;;;;5.67;3.00;;;;;8.08;88.30;101789.22;4823040;29;44867;-86
2022/02/01 07:57:55;;;;;;;;;2.67;2.33;;;;;8.16;89.45;101804.59;4823675;29;44965;-86
2022/02/01 08:03:52;;;;;;;;;6.00;6.00;;;;;8.14;88.42;101779.78;4841205;29;45776;-86
2022/02/01 08:06:18;;;;;;;;;6.00;5.00;;;;;8.18;88.39;101801.97;4826556;29;45267;-85
2022/02/01 08:08:45;;;;;;;;;2.00;2.00;;;;;8.23;89.29;101784.53;4825211;29;45448;-86
2022/02/01 08:11:15;;;;;;;;;6.00;2.00;;;;;7.95;89.11;101737.47;4825266;29;45780;-85
2022/02/01 08:15:22;;;;;;;;;5.00;5.00;;;;;8.35;88.36;101792.09;4824660;29;48147;-85
2022/02/01 08:17:28;;;;;;;;;3.00;3.00;;;;;8.37;88.34;101786.00;4841237;29;44851;-85
2022/02/01 08:20:02;;;;;;;;;7.33;5.67;;;;;8.31;88.23;101768.97;4842199;29;45441;-85
2022/02/01 08:24:56;;;;;;;;;5.00;2.00;;;;;8.49;87.90;101788.25;4838103;29;44933;-85
2022/02/01 08:27:40;;;;;;;;;6.33;4.67;;;;;8.50;88.48;101781.22;4823645;29;45340;-86
2022/02/01 08:30:12;;;;;;;;;2.00;2.00;;;;;8.57;88.30;101801.84;4839777;29;45791;-86
2022/02/01 08:32:38;;;;;;;;;7.33;6.00;;;;;8.44;88.55;101765.97;4820880;29;45399;-86
2022/02/01 08:38:28;;;;;;;;;6.67;5.00;;;;;8.65;88.45;101772.97;4843663;29;45259;-86
2022/02/01 08:41:26;;;;;;;;;2.00;2.00;;;;;8.52;88.36;101740.66;4822048;29;44808;-87
2022/02/01 08:43:53;;;;;;;;;10.33;3.33;;;;;8.57;88.63;101744.41;4824075;29;45615;-85
2022/02/01 08:46:20;;;;;;;;;6.00;4.00;;;;;8.54;89.48;101739.00;4824807;29;45616;-83
2022/02/01 08:48:47;;;;;;;;;9.33;5.33;;;;;8.53;89.21;101729.22;4840191;29;45500;-85
2022/02/01 08:51:13;;;;;;;;;5.00;4.67;;;;;8.63;88.95;101742.84;4828312;29;45418;-85
2022/02/01 08:53:59;;;;;;;;;1.00;1.00;;;;;8.60;88.97;101727.69;4842347;29;45347;-84
2022/02/01 08:59:17;;;;;;;;;2.67;2.00;;;;;8.74;88.55;101714.94;4804076;29;45448;-85
2022/02/01 09:01:47;;;;;;;;;2.00;2.00;;;;;8.99;88.74;101760.13;4805288;29;45502;-85
2022/02/01 09:04:13;;;;;;;;;3.00;3.00;;;;;8.83;88.73;101731.22;4822011;29;45008;-86
2022/02/01 09:06:51;;;;;;;;;5.00;4.33;;;;;9.02;88.94;101746.94;4822918;29;46309;-85
2022/02/01 09:09:29;;;;;;;;;;;;;;;;;;;;;
2022/02/01 09:11:58;;;;;;;;;9.00;7.00;;;;;8.94;88.43;101702.44;4796875;29;67923;-84
2022/02/01 09:18:00;;;;;;;;;7.00;6.67;;;;;9.16;88.25;101715.59;4796785;29;45567;-87
2022/02/01 09:20:31;;;;;;;;;5.00;5.00;;;;;8.99;87.81;101669.91;4810277;29;45380;-84
2022/02/01 09:23:05;;;;;;;;;6.67;5.00;;;;;9.23;88.42;101719.41;4808073;29;45003;-84
2022/02/01 09:25:48;;;;;;;;;6.67;4.33;;;;;9.13;87.69;101664.16;4808182;29;45553;-86
2022/02/01 09:28:13;;;;;;;;;6.00;6.00;;;;;9.27;87.87;101700.06;4815024;29;45400;-86
2022/02/01 09:30:39;;;;;;;;;3.00;3.00;;;;;9.34;88.04;101696.78;4803577;29;44881;-87
2022/02/01 09:33:05;;;;;;;;;6.00;6.00;;;;;9.47;87.78;101702.50;4804502;29;44944;-86
2022/02/01 09:35:36;;;;;;;;;3.33;2.00;;;;;9.54;87.58;101707.19;4818323;29;45471;-86
2022/02/01 09:38:34;;;;;;;;;5.67;1.67;;;;;9.59;87.70;101708.22;4844804;29;45300;-86
2022/02/01 09:41:16;;;;;;;;;3.00;3.00;;;;;9.51;88.04;101701.75;4929803;23;44938;-85
2022/02/01 09:43:52;;;;;;;;;6.00;3.00;;;;;9.43;87.98;101682.00;4842211;29;44852;-84
2022/02/01 09:46:30;;;;;;;;;;;;;;;;;;;;;
2022/02/01 09:49:30;;;;;;;;;;;;;;;;;;;;;
2022/02/01 10:04:49;;;;;;;;;3.00;3.00;;;;;9.91;87.90;101705.72;4789378;29;45482;-87
2022/02/01 10:10:16;;;;;;;;;2.67;2.67;;;;;10.03;87.50;101703.47;4901987;24;45333;-86
2022/02/01 10:12:43;;;;;;;;;2.33;2.33;;;;;9.79;87.54;101682.31;4842348;29;45458;-89
2022/02/01 10:15:22;;;;;;;;;7.00;6.67;;;;;9.87;87.89;101685.22;4936512;23;45775;-86
2022/02/01 10:17:58;;;;;;;;;8.33;8.33;;;;;9.95;87.64;101705.88;4825950;29;44982;-86
2022/02/01 10:20:52;;;;;;;;;8.33;6.67;;;;;9.98;88.04;101710.41;4825775;29;45426;-88
2022/02/01 10:26:21;;;;;;;;;7.00;6.00;;;;;9.93;87.69;101694.28;5214322;23;45792;-86
2022/02/01 10:29:02;;;;;;;;;3.67;3.67;;;;;9.90;87.78;101702.19;4862054;29;45852;-86
2022/02/01 10:31:45;;;;;;;;;8.00;6.00;;;;;9.82;88.23;101678.00;4844021;29;46109;-86
2022/02/01 10:34:27;;;;;;;;;6.67;6.00;;;;;10.02;87.79;101677.75;4859869;29;45517;-87
2022/02/01 10:40:24;;;;;;;;;9.67;8.33;;;;;9.87;88.05;101642.72;4821991;29;45477;-86
2022/02/01 10:43:16;;;;;;;;;7.00;6.00;;;;;10.17;88.14;101680.88;4826088;29;45624;-85
2022/02/01 10:45:48;;;;;;;;;8.00;8.00;;;;;10.19;87.83;101679.16;4823713;29;45478;-86
2022/02/01 10:48:16;;;;;;;;;4.67;3.33;;;;;10.23;87.62;101658.00;4822996;29;45500;-87
2022/02/01 10:50:52;;;;;;;;;4.00;3.33;;;;;10.21;87.48;101650.84;4795046;29;44834;-86
2022/02/01 10:53:20;;;;;;;;;4.67;4.67;;;;;10.44;87.57;101669.28;4817820;29;45758;-85
2022/02/01 10:55:52;;;;;;;;;4.00;4.00;;;;;10.28;87.54;101630.69;4820583;29;45500;-87
2022/02/01 10:58:18;;;;;;;;;8.33;7.00;;;;;10.51;87.30;101630.50;4819983;29;45374;-87
2022/02/01 11:00:51;;;;;;;;;5.33;5.33;;;;;10.54;87.29;101625.25;4804225;29;45435;-86
2022/02/01 11:03:23;;;;;;;;;9.67;7.00;;;;;10.48;86.81;101607.34;4806491;29;44889;-85
2022/02/01 11:05:55;;;;;;;;;6.00;4.67;;;;;10.69;87.33;101640.75;4806628;29;47194;-85
2022/02/01 11:08:29;;;;;;;;;3.00;3.00;;;;;10.48;87.32;101575.44;4805604;29;45464;-86
2022/02/01 11:10:59;;;;;;;;;6.67;4.67;;;;;10.80;87.19;101632.19;4822916;29;45759;-87
2022/02/01 11:14:06;;;;;;;;;2.00;1.00;;;;;10.88;86.88;101618.19;4812966;29;45901;-86
2022/02/01 11:16:41;;;;;;;;;5.33;3.00;;;;;10.80;86.72;101589.59;4821222;29;45586;-87
2022/02/01 11:19:08;;;;;;;;;6.00;6.00;;;;;11.02;86.85;101614.13;4828236;29;45775;-86
2022/02/01 11:21:50;;;;;;;;;3.00;3.00;;;;;11.08;86.48;101616.06;4836428;29;44866;-86
2022/02/01 11:24:33;;;;;;;;;3.33;3.33;;;;;11.08;86.40;101586.78;4838522;29;45577;-85
2022/02/01 11:27:36;;;;;;;;;4.67;3.33;;;;;11.16;86.44;101617.16;4841747;29;46504;-84
2022/02/01 11:30:14;;;;;;;;;4.33;4.33;;;;;10.85;86.57;101559.59;4831836;29;44873;-86
2022/02/01 11:32:49;;;;;;;;;7.00;4.00;;;;;11.10;86.44;101615.25;4841159;29;45816;-86
2022/02/01 11:35:35;;;;;;;;;2.00;2.00;;;;;10.93;86.55;101597.94;4859395;29;44895;-86
2022/02/01 11:41:39;;;;;;;;;7.67;7.67;;;;;10.91;86.81;101589.03;4850826;29;45486;-86
2022/02/01 11:44:18;;;;;;;;;7.33;6.33;;;;;11.04;87.04;101603.53;4839515;29;45286;-87
2022/02/01 11:47:20;;;;;;;;;7.00;4.00;;;;;11.01;86.69;101604.38;4835898;29;45673;-87
2022/02/01 11:49:52;;;;;;;;;8.67;7.33;;;;;10.86;87.04;101586.22;4860024;29;46151;-86
2022/02/01 11:52:19;;;;;;;;;4.00;4.00;;;;;10.70;87.26;101576.03;4849636;29;45402;-86
2022/02/01 11:54:49;;;;;;;;;8.00;7.00;;;;;10.60;87.36;101551.84;4831102;29;45305;-86
2022/02/01 11:57:26;;;;;;;;;8.33;8.33;;;;;10.70;87.09;101586.66;4857246;29;44950;-86
2022/02/01 11:59:53;;;;;;;;;6.67;6.67;;;;;10.68;87.65;101585.72;4832403;29;45466;-85
2022/02/01 12:02:48;;;;;;;;;2.33;2.33;;;;;10.76;88.08;101609.00;4823597;29;45331;-87
2022/02/01 12:05:39;;;;;;;;;4.33;4.33;;;;;10.68;88.04;101605.25;4825969;29;44951;-86
2022/02/01 12:08:27;;;;;;;;;7.00;7.00;;;;;10.69;88.01;101606.16;4866902;29;45520;-86
2022/02/01 12:14:18;;;;;;;;;8.00;7.00;;;;;10.54;88.59;101570.31;4799185;29;44832;-89
2022/02/01 12:17:00;;;;;;;;;10.00;7.00;;;;;10.64;88.40;101587.41;4789377;29;44879;-87
2022/02/01 12:19:53;;;;;;;;;9.00;8.67;;;;;10.45;88.72;101562.06;4797394;29;44913;-84
2022/02/01 12:22:32;;;;;;;;;11.33;9.67;;;;;10.46;89.00;101554.97;4791957;29;45384;-84
2022/02/01 12:25:09;;;;;;;;;8.00;8.00;;;;;10.56;89.52;101573.91;4791211;29;44876;-85
2022/02/01 12:27:44;;;;;;;;;12.33;12.33;;;;;10.59;89.40;101567.78;4804061;29;45462;-85
2022/02/01 12:30:11;;;;;;;;;11.00;8.67;;;;;10.41;89.81;101546.88;4805257;29;44858;-83
2022/02/01 12:32:59;;;;;;;;;10.00;8.67;;;;;10.63;90.33;101568.75;4802874;29;45366;-84
2022/02/01 12:35:36;;;;;;;;;8.00;7.33;;;;;10.67;90.47;101567.97;4792250;29;45613;-83
2022/02/01 12:38:22;;;;;;;;;9.00;8.67;;;;;10.70;90.52;101563.63;4791236;29;44804;-85
2022/02/01 12:41:10;;;;;;;;;6.67;6.67;;;;;10.78;90.46;101563.81;4788773;29;45791;-84
2022/02/01 12:43:54;;;;;;;;;6.00;6.00;;;;;10.76;90.96;101565.56;4801049;29;45694;-83
2022/02/01 12:46:38;;;;;;;;;6.67;6.33;;;;;10.63;91.05;101542.16;4800719;29;45725;-86
2022/02/01 12:49:03;;;;;;;;;7.00;7.00;;;;;10.67;91.01;101557.34;4801249;29;45404;-87
2022/02/01 12:52:28;;;;;;;;;10.00;7.33;;;;;10.78;91.09;101540.78;4833544;29;45526;-88
2022/02/01 12:55:13;;;;;;;;;11.00;9.00;;;;;10.53;90.93;101493.13;4780570;29;45681;-84
2022/02/01 12:57:45;;;;;;;;;8.00;7.00;;;;;10.84;91.27;101547.13;4795795;29;45409;-84
2022/02/01 13:03:45;;;;;;;;;7.67;7.00;;;;;10.58;91.32;101491.47;4805628;29;45575;-86
2022/02/01 13:06:14;;;;;;;;;3.00;3.00;;;;;10.64;90.99;101496.06;4805162;29;45479;-88
2022/02/01 13:20:04;;;;;;;;;7.00;4.33;;;;;10.89;91.07;101481.63;4801310;29;44900;-86
2022/02/01 13:21:23;;;;;;;;;4.00;4.00;;;;;10.93;90.85;101484.41;4791973;29;45602;-86
2022/02/01 13:24:11;;;;;;;;;3.00;2.00;;;;;10.86;91.60;101470.91;4767358;29;45674;-86
2022/02/01 13:28:41;;;;;;;;;;;;;;;;;;;;;
2022/02/01 14:04:52;;;;;;;;;3.00;3.00;;;;;10.82;92.94;101430.00;4700187;23;45408;-87
2022/02/01 14:08:16;;;;;;;;;2.00;2.00;;;;;10.88;93.20;101447.88;4834646;29;44947;-85
2022/02/01 14:36:25;;;;;;;;;4.33;1.33;;;;;10.81;94.46;101428.22;5334764;23;46133;-86
2022/02/01 14:44:42;;;;;;;;;2.33;2.00;;;;;10.77;95.30;101439.66;4843052;29;44885;-86
2022/02/01 14:47:34;;;;;;;;;2.00;2.00;;;;;10.88;95.15;101443.47;4823411;29;45045;-85
2022/02/01 14:50:41;;;;;;;;;4.33;3.00;;;;;10.95;94.86;101465.81;4802709;29;45602;-88
2022/02/01 14:53:43;;;;;;;;;3.00;1.67;;;;;11.15;94.87;101468.91;4804466;29;45455;-86
2022/02/01 14:56:28;;;;;;;;;1.33;1.00;;;;;10.95;94.71;101445.41;4802162;29;45755;-85
2022/02/01 15:07:51;;;;;;;;;2.00;2.00;;;;;11.01;95.02;101444.66;4733122;29;45963;-88
2022/02/01 15:13:13;;;;;;;;;1.00;1.00;;;;;10.91;95.33;101424.03;4733051;29;45479;-86
2022/02/01 15:15:51;;;;;;;;;1.33;1.00;;;;;11.14;96.05;101461.81;4718972;30;44834;-86
2022/02/01 15:18:22;;;;;;;;;2.00;2.00;;;;;10.99;95.29;101435.75;4734212;29;45606;-88
2022/02/01 15:30:59;;;;;;;;;2.00;2.00;;;;;11.06;96.49;101460.75;4771083;29;44967;-88
2022/02/01 15:57:07;;;;;;;;;2.00;1.00;;;;;11.38;94.72;101459.69;4842240;29;46305;-86
2022/02/01 15:59:38;;;;;;;;;2.67;2.00;;;;;11.37;94.78;101454.34;4824562;29;45441;-86
2022/02/01 16:02:10;;;;;;;;;2.33;2.33;;;;;11.39;94.71;101474.84;4824407;29;45254;-86
2022/02/01 16:04:39;;;;;;;;;9.00;4.33;;;;;11.26;94.70;101451.44;4826180;29;45583;-87
2022/02/01 16:13:02;;;;;;;;;4.00;3.00;;;;;11.15;95.13;101447.63;4823826;29;45576;-85
2022/02/01 16:15:34;;;;;;;;;3.67;3.00;;;;;11.20;94.80;101445.97;4810847;29;45266;-87
2022/02/01 16:18:07;;;;;;;;;3.33;2.33;;;;;11.31;94.82;101464.84;4808660;29;46847;-86
2022/02/01 16:20:35;;;;;;;;;6.00;3.00;;;;;11.35;94.65;101466.72;4808771;29;45399;-86
2022/02/01 16:23:10;;;;;;;;;2.67;2.00;;;;;11.38;94.56;101454.38;4825215;29;45332;-86
2022/02/01 16:25:36;;;;;;;;;2.00;2.00;;;;;11.20;94.48;101435.34;4823305;29;45412;-87
2022/02/01 16:28:04;;;;;;;;;4.33;3.00;;;;;11.29;94.56;101447.94;4823312;29;45374;-87
2022/02/01 16:30:36;;;;;;;;;4.00;3.00;;;;;11.39;94.61;101469.50;4811553;29;44905;-86